createdAt,value
2023-05-01T00:03:04.376Z,6.85
2023-05-01T00:08:07.006Z,5.72
2023-05-01T00:13:10.446Z,6.07
2023-05-01T00:18:13.208Z,7.35
2023-05-01T00:23:15.968Z,6.22
2023-05-01T00:28:19.396Z,6.38
2023-05-01T00:33:22.039Z,6.03
2023-05-01T00:38:24.638Z,6.30
2023-05-01T00:43:27.251Z,5.75
2023-05-01T00:48:29.866Z,5.90
2023-05-01T00:53:34.146Z,5.53
2023-05-01T00:58:37.378Z,5.88
2023-05-01T01:03:39.935Z,5.63
2023-05-01T01:09:08.438Z,5.70
2023-05-01T01:14:25.399Z,5.25
2023-05-01T01:19:39.889Z,5.22
2023-05-01T01:25:20.363Z,5.30
2023-05-01T01:31:05.455Z,5.03
2023-05-01T01:36:16.352Z,5.07
2023-05-01T01:46:25.611Z,4.45
2023-05-01T01:51:30.719Z,3.65
2023-05-01T02:01:41.387Z,5.18
2023-05-01T02:06:46.480Z,4.40
2023-05-01T02:11:52.303Z,4.97
2023-05-01T02:16:59.017Z,3.70
2023-05-01T02:22:05.277Z,3.10
2023-05-01T02:32:12.659Z,3.33
2023-05-01T02:37:15.643Z,3.78
2023-05-01T02:42:22.454Z,3.35
2023-05-01T02:47:27.625Z,2.97
2023-05-01T02:52:31.224Z,3.10
2023-05-01T02:57:52.617Z,3.22
2023-05-01T03:02:55.358Z,3.33
2023-05-01T03:07:58.044Z,2.92
2023-05-01T03:13:01.392Z,2.70
2023-05-01T03:18:04.711Z,2.70
2023-05-01T03:23:07.932Z,2.72
2023-05-01T03:28:11.027Z,2.53
2023-05-01T03:33:14.308Z,1.88
2023-05-01T03:38:16.919Z,2.25
2023-05-01T03:43:38.015Z,2.13
2023-05-01T03:48:47.227Z,2.05
2023-05-01T03:53:50.029Z,2.28
2023-05-01T03:58:53.636Z,2.17
2023-05-01T04:03:56.472Z,1.70
2023-05-01T04:08:59.594Z,1.90
2023-05-01T04:14:02.099Z,2.50
2023-05-01T04:19:04.600Z,1.90
2023-05-01T04:24:09.808Z,2.13
2023-05-01T04:29:12.399Z,2.20
2023-05-01T04:34:15.258Z,2.25
2023-05-01T04:39:17.953Z,2.55
2023-05-01T04:44:20.995Z,2.33
2023-05-01T04:49:23.664Z,2.70
2023-05-01T04:54:26.146Z,2.40
2023-05-01T04:59:28.652Z,1.92
2023-05-01T05:04:31.574Z,1.95
2023-05-01T05:09:34.268Z,2.00
2023-05-01T05:14:36.853Z,2.45
2023-05-01T05:19:39.340Z,2.33
2023-05-01T05:24:41.928Z,2.35
2023-05-01T05:29:44.914Z,2.80
2023-05-01T05:34:47.993Z,3.13
2023-05-01T05:44:53.405Z,3.33
2023-05-01T05:49:56.595Z,3.10
2023-05-01T05:54:59.590Z,3.42
2023-05-01T06:00:02.234Z,3.47
2023-05-01T06:05:15.057Z,3.38
2023-05-01T06:10:18.001Z,2.78
2023-05-01T06:15:20.792Z,3.45
2023-05-01T06:20:29.783Z,1.70
2023-05-01T06:25:32.599Z,0.80
2023-05-01T06:30:35.265Z,0.77
2023-05-01T06:40:41.965Z,0.70
2023-05-01T06:45:44.544Z,0.70
2023-05-01T06:50:47.123Z,0.70
2023-05-01T06:55:50.032Z,0.50
2023-05-01T07:00:54.163Z,1.00
2023-05-01T07:05:56.951Z,0.70
2023-05-01T07:10:59.506Z,1.00
2023-05-01T07:16:02.661Z,0.70
2023-05-01T07:21:05.773Z,0.80
2023-05-01T07:26:08.435Z,0.50
2023-05-01T07:31:11.020Z,0.60
2023-05-01T07:36:15.291Z,0.70
2023-05-01T07:41:17.777Z,0.50
2023-05-01T07:46:20.269Z,0.80
2023-05-01T07:51:24.151Z,0.68
2023-05-01T07:56:27.546Z,0.68
2023-05-01T08:01:30.262Z,0.90
2023-05-01T08:06:33.035Z,0.75
2023-05-01T08:11:36.034Z,0.82
2023-05-01T08:16:38.756Z,0.32
2023-05-01T08:21:41.269Z,0.80
2023-05-01T08:26:43.925Z,0.68
2023-05-01T08:31:46.580Z,0.77
2023-05-01T08:36:49.217Z,0.80
2023-05-01T08:41:53.251Z,0.82
2023-05-01T08:47:15.595Z,0.65
2023-05-01T08:52:20.956Z,0.70
2023-05-01T08:57:25.554Z,0.60
2023-05-01T09:02:29.796Z,0.90
2023-05-01T09:07:32.392Z,0.75
2023-05-01T09:12:38.166Z,0.80
2023-05-01T09:17:40.832Z,0.88
2023-05-01T09:22:43.401Z,0.70
2023-05-01T09:27:48.911Z,0.85
2023-05-01T09:33:07.374Z,0.82
2023-05-01T09:38:09.974Z,0.90
2023-05-01T09:43:12.476Z,1.20
2023-05-01T09:48:15.538Z,1.33
2023-05-01T09:53:18.163Z,1.20
2023-05-01T09:58:30.105Z,0.70
2023-05-01T10:03:34.960Z,0.52
2023-05-01T10:08:47.888Z,1.00
2023-05-01T10:14:07.905Z,0.85
2023-05-01T10:19:11.199Z,0.80
2023-05-01T10:24:15.494Z,1.00
2023-05-01T10:29:21.285Z,1.70
2023-05-01T10:34:26.427Z,0.70
2023-05-01T10:39:35.439Z,0.75
2023-05-01T10:44:38.416Z,0.70
2023-05-01T10:50:09.104Z,0.60
2023-05-01T10:55:36.960Z,0.70
2023-05-01T11:00:39.576Z,1.00
2023-05-01T11:06:00.379Z,0.90
2023-05-01T11:11:24.309Z,0.70
2023-05-01T11:16:46.363Z,0.70
2023-05-01T11:21:50.304Z,0.75
2023-05-01T11:26:53.057Z,1.75
2023-05-01T11:31:55.765Z,1.00
2023-05-01T11:36:58.258Z,0.70
2023-05-01T11:42:10.011Z,0.52
2023-05-01T11:47:12.849Z,0.80
2023-05-01T11:52:15.797Z,0.70
2023-05-01T11:57:20.441Z,0.63
2023-05-01T12:02:23.424Z,0.80
2023-05-01T12:07:26.126Z,0.70
2023-05-01T12:12:28.708Z,0.60
2023-05-01T12:17:31.532Z,0.60
2023-05-01T12:22:34.105Z,1.13
2023-05-01T12:27:46.267Z,0.82
2023-05-01T12:32:49.345Z,0.52
2023-05-01T12:37:52.732Z,0.57
2023-05-01T12:43:00.236Z,0.82
2023-05-01T12:48:03.732Z,0.80
2023-05-01T12:53:07.525Z,0.93
2023-05-01T13:03:13.646Z,1.00
2023-05-01T13:08:16.440Z,1.05
2023-05-01T13:13:30.821Z,1.00
2023-05-01T13:18:34.859Z,1.10
2023-05-01T13:23:38.811Z,1.33
2023-05-01T13:28:45.491Z,1.45
2023-05-01T13:33:53.213Z,1.02
2023-05-01T13:38:57.245Z,1.63
2023-05-01T13:44:00.079Z,1.40
2023-05-01T13:49:05.505Z,1.42
2023-05-01T13:54:08.695Z,1.30
2023-05-01T13:59:13.294Z,1.20
2023-05-01T14:04:18.541Z,1.10
2023-05-01T14:09:22.943Z,1.20
2023-05-01T14:14:25.569Z,1.00
2023-05-01T14:19:28.470Z,1.10
2023-05-01T14:24:31.250Z,1.10
2023-05-01T14:29:33.873Z,1.55
2023-05-01T14:34:36.689Z,1.88
2023-05-01T14:39:39.945Z,1.67
2023-05-01T14:44:43.539Z,1.67
2023-05-01T14:49:52.359Z,1.52
2023-05-01T14:54:58.362Z,1.60
2023-05-01T15:00:02.284Z,1.80
2023-05-01T15:05:06.638Z,1.80
2023-05-01T15:10:09.722Z,1.55
2023-05-01T15:15:12.818Z,1.77
2023-05-01T15:20:15.309Z,1.90
2023-05-01T15:25:18.023Z,1.52
2023-05-01T15:30:20.511Z,1.80
2023-05-01T15:35:23.993Z,1.90
2023-05-01T15:40:26.537Z,1.80
2023-05-01T15:45:29.242Z,1.80
2023-05-01T15:50:31.747Z,1.67
2023-05-01T15:55:35.238Z,2.33
2023-05-01T16:00:39.918Z,2.15
2023-05-01T16:05:46.168Z,1.80
2023-05-01T16:10:48.608Z,1.73
2023-05-01T16:15:51.263Z,2.47
2023-05-01T16:20:55.008Z,2.30
2023-05-01T16:25:57.554Z,2.67
2023-05-01T16:31:00.014Z,2.72
2023-05-01T16:36:02.583Z,3.20
2023-05-01T16:41:05.103Z,3.15
2023-05-01T16:46:07.742Z,3.30
2023-05-01T16:51:10.970Z,3.67
2023-05-01T16:56:13.657Z,3.47
2023-05-01T17:01:17.602Z,3.53
2023-05-01T17:06:20.252Z,3.08
2023-05-01T17:11:23.140Z,4.20
2023-05-01T17:16:25.761Z,3.60
2023-05-01T17:21:28.272Z,2.70
2023-05-01T17:26:30.796Z,2.92
2023-05-01T17:31:33.706Z,2.47
2023-05-01T17:36:37.003Z,2.42
2023-05-01T17:41:39.568Z,2.58
2023-05-01T17:46:42.075Z,3.15
2023-05-01T17:51:45.591Z,2.28
2023-05-01T17:56:48.084Z,3.10
2023-05-01T18:01:50.676Z,2.75
2023-05-01T18:06:54.360Z,2.35
2023-05-01T18:11:57.018Z,2.38
2023-05-01T18:17:00.315Z,2.80
2023-05-01T18:22:04.476Z,2.20
2023-05-01T18:27:06.951Z,2.30
2023-05-01T18:32:13.355Z,2.70
2023-05-01T18:37:16.388Z,2.30
2023-05-01T18:42:18.953Z,2.50
2023-05-01T18:47:21.547Z,1.70
2023-05-01T18:52:24.122Z,2.25
2023-05-01T18:57:27.939Z,4.15
2023-05-01T19:02:30.435Z,2.60
2023-05-01T19:07:32.965Z,2.70
2023-05-01T19:12:35.577Z,2.22
2023-05-01T19:17:38.110Z,2.45
2023-05-01T19:22:40.621Z,2.70
2023-05-01T19:27:44.154Z,2.63
2023-05-01T19:32:46.940Z,3.20
2023-05-01T19:37:55.618Z,3.30
2023-05-01T19:42:58.931Z,3.20
2023-05-01T19:48:01.492Z,3.28
2023-05-01T19:53:05.624Z,3.22
2023-05-01T19:58:09.520Z,2.53
2023-05-01T20:03:13.291Z,2.80
2023-05-01T20:08:16.030Z,2.90
2023-05-01T20:13:18.532Z,2.92
2023-05-01T20:18:21.041Z,2.53
2023-05-01T20:23:23.889Z,2.75
2023-05-01T20:28:27.293Z,2.47
2023-05-01T20:33:29.818Z,2.42
2023-05-01T20:38:32.232Z,2.20
2023-05-01T20:43:34.776Z,2.42
2023-05-01T20:48:37.402Z,1.67
2023-05-01T20:53:40.039Z,2.15
2023-05-01T20:58:42.524Z,2.15
2023-05-01T21:03:45.110Z,2.35
2023-05-01T21:08:48.746Z,2.40
2023-05-01T21:13:51.273Z,2.17
2023-05-01T21:18:53.816Z,2.47
2023-05-01T21:23:56.401Z,2.38
2023-05-01T21:28:58.872Z,2.72
2023-05-01T21:34:04.399Z,3.05
2023-05-01T21:39:06.841Z,2.58
2023-05-01T21:44:10.051Z,2.17
2023-05-01T21:49:12.924Z,2.20
2023-05-01T21:54:19.239Z,2.50
2023-05-01T21:59:22.875Z,1.90
2023-05-01T22:04:25.304Z,2.28
2023-05-01T22:09:28.021Z,1.75
2023-05-01T22:14:40.181Z,1.77
2023-05-01T22:19:49.075Z,1.73
2023-05-01T22:24:52.383Z,2.10
2023-05-01T22:29:54.955Z,1.98
2023-05-01T22:34:57.527Z,2.00
2023-05-01T22:40:00.517Z,1.90
2023-05-01T22:45:03.374Z,1.77
2023-05-01T22:55:10.290Z,1.75
2023-05-01T23:00:14.068Z,1.70
2023-05-01T23:05:17.612Z,1.60
2023-05-01T23:10:24.362Z,1.42
2023-05-01T23:15:27.487Z,1.67
2023-05-01T23:20:30.015Z,2.00
2023-05-01T23:25:32.582Z,2.08
2023-05-01T23:30:35.646Z,1.63
2023-05-01T23:35:38.110Z,1.85
2023-05-01T23:40:41.131Z,1.77
2023-05-01T23:45:44.194Z,1.83
2023-05-01T23:50:46.893Z,1.60
2023-05-01T23:55:49.361Z,1.60
